sensor_id;sensor_type;location;lat;lon;timestamp;temperature;humidity
3418;DHT22;68007;51.312;12.372;2023-11-21T00:00:43;12.10;94.70
3418;DHT22;68007;51.312;12.372;2023-11-21T00:03:12;12.10;94.60
3418;DHT22;68007;51.312;12.372;2023-11-21T00:05:41;12.00;94.70
3418;DHT22;68007;51.312;12.372;2023-11-21T00:08:08;12.10;94.50
3418;DHT22;68007;51.312;12.372;2023-11-21T00:10:36;12.00;94.50
3418;DHT22;68007;51.312;12.372;2023-11-21T00:13:04;12.00;94.70
3418;DHT22;68007;51.312;12.372;2023-11-21T00:15:32;12.00;94.70
3418;DHT22;68007;51.312;12.372;2023-11-21T00:18:01;12.00;94.80
3418;DHT22;68007;51.312;12.372;2023-11-21T00:20:28;12.00;94.50
3418;DHT22;68007;51.312;12.372;2023-11-21T00:22:56;12.00;94.70
3418;DHT22;68007;51.312;12.372;2023-11-21T00:25:23;12.00;94.60
3418;DHT22;68007;51.312;12.372;2023-11-21T00:27:51;12.00;94.50
3418;DHT22;68007;51.312;12.372;2023-11-21T00:30:18;11.90;94.00
3418;DHT22;68007;51.312;12.372;2023-11-21T00:32:48;11.90;94.40
3418;DHT22;68007;51.312;12.372;2023-11-21T00:35:17;11.90;94.50
3418;DHT22;68007;51.312;12.372;2023-11-21T00:37:44;12.00;94.50
3418;DHT22;68007;51.312;12.372;2023-11-21T00:40:12;11.90;94.30
3418;DHT22;68007;51.312;12.372;2023-11-21T00:42:41;11.90;94.40
3418;DHT22;68007;51.312;12.372;2023-11-21T00:45:10;12.00;94.30
3418;DHT22;68007;51.312;12.372;2023-11-21T00:47:37;11.90;94.30
3418;DHT22;68007;51.312;12.372;2023-11-21T00:50:06;11.90;94.30
3418;DHT22;68007;51.312;12.372;2023-11-21T00:52:35;11.90;94.40
3418;DHT22;68007;51.312;12.372;2023-11-21T00:55:03;11.90;94.40
3418;DHT22;68007;51.312;12.372;2023-11-21T00:57:30;11.90;94.30
3418;DHT22;68007;51.312;12.372;2023-11-21T00:59:58;11.90;94.30
3418;DHT22;68007;51.312;12.372;2023-11-21T01:02:26;11.90;94.30
3418;DHT22;68007;51.312;12.372;2023-11-21T01:04:53;11.90;94.20
3418;DHT22;68007;51.312;12.372;2023-11-21T01:07:21;11.90;94.30
3418;DHT22;68007;51.312;12.372;2023-11-21T01:09:50;11.90;94.20
3418;DHT22;68007;51.312;12.372;2023-11-21T01:12:17;11.90;94.20
3418;DHT22;68007;51.312;12.372;2023-11-21T01:14:45;11.90;94.10
3418;DHT22;68007;51.312;12.372;2023-11-21T01:17:12;11.90;94.00
3418;DHT22;68007;51.312;12.372;2023-11-21T01:19:40;11.80;93.80
3418;DHT22;68007;51.312;12.372;2023-11-21T01:22:07;11.80;94.00
3418;DHT22;68007;51.312;12.372;2023-11-21T01:24:35;11.70;94.10
3418;DHT22;68007;51.312;12.372;2023-11-21T01:27:04;11.70;94.20
3418;DHT22;68007;51.312;12.372;2023-11-21T01:29:32;11.70;94.20
3418;DHT22;68007;51.312;12.372;2023-11-21T01:32:01;11.70;94.20
3418;DHT22;68007;51.312;12.372;2023-11-21T01:34:29;11.60;94.00
3418;DHT22;68007;51.312;12.372;2023-11-21T01:36:57;11.60;93.80
3418;DHT22;68007;51.312;12.372;2023-11-21T01:39:25;11.50;94.30
3418;DHT22;68007;51.312;12.372;2023-11-21T01:41:53;11.50;94.00
3418;DHT22;68007;51.312;12.372;2023-11-21T01:44:21;11.50;94.20
3418;DHT22;68007;51.312;12.372;2023-11-21T01:46:50;11.40;93.70
3418;DHT22;68007;51.312;12.372;2023-11-21T01:49:20;11.30;94.10
3418;DHT22;68007;51.312;12.372;2023-11-21T01:51:49;11.10;93.90
3418;DHT22;68007;51.312;12.372;2023-11-21T01:54:17;11.00;94.00
3418;DHT22;68007;51.312;12.372;2023-11-21T01:56:46;10.90;94.60
3418;DHT22;68007;51.312;12.372;2023-11-21T01:59:18;10.90;94.70
3418;DHT22;68007;51.312;12.372;2023-11-21T02:01:48;10.80;94.40
3418;DHT22;68007;51.312;12.372;2023-11-21T02:04:16;10.80;94.80
3418;DHT22;68007;51.312;12.372;2023-11-21T02:06:44;10.80;94.90
3418;DHT22;68007;51.312;12.372;2023-11-21T02:09:11;10.80;95.20
3418;DHT22;68007;51.312;12.372;2023-11-21T02:11:41;10.90;94.60
3418;DHT22;68007;51.312;12.372;2023-11-21T02:14:09;10.80;94.80
3418;DHT22;68007;51.312;12.372;2023-11-21T02:16:37;10.80;94.90
3418;DHT22;68007;51.312;12.372;2023-11-21T02:19:08;10.90;95.20
3418;DHT22;68007;51.312;12.372;2023-11-21T02:21:39;10.90;95.00
3418;DHT22;68007;51.312;12.372;2023-11-21T02:24:08;11.00;95.20
3418;DHT22;68007;51.312;12.372;2023-11-21T02:26:36;11.10;95.20
3418;DHT22;68007;51.312;12.372;2023-11-21T02:29:03;11.10;95.10
3418;DHT22;68007;51.312;12.372;2023-11-21T02:31:31;11.20;95.00
3418;DHT22;68007;51.312;12.372;2023-11-21T02:33:59;11.20;94.90
3418;DHT22;68007;51.312;12.372;2023-11-21T02:36:26;11.30;94.80
3418;DHT22;68007;51.312;12.372;2023-11-21T02:38:54;11.20;94.50
3418;DHT22;68007;51.312;12.372;2023-11-21T02:41:22;11.20;94.60
3418;DHT22;68007;51.312;12.372;2023-11-21T02:43:50;11.20;95.10
3418;DHT22;68007;51.312;12.372;2023-11-21T02:46:17;11.20;94.70
3418;DHT22;68007;51.312;12.372;2023-11-21T02:48:45;11.30;94.80
3418;DHT22;68007;51.312;12.372;2023-11-21T02:51:12;11.30;94.80
3418;DHT22;68007;51.312;12.372;2023-11-21T02:53:42;11.30;94.60
3418;DHT22;68007;51.312;12.372;2023-11-21T02:56:09;11.40;94.70
3418;DHT22;68007;51.312;12.372;2023-11-21T02:58:40;11.40;94.60
3418;DHT22;68007;51.312;12.372;2023-11-21T03:01:09;11.40;94.60
3418;DHT22;68007;51.312;12.372;2023-11-21T03:03:37;11.50;94.50
3418;DHT22;68007;51.312;12.372;2023-11-21T03:06:06;11.40;94.50
3418;DHT22;68007;51.312;12.372;2023-11-21T03:08:34;11.50;94.30
3418;DHT22;68007;51.312;12.372;2023-11-21T03:11:02;11.40;94.10
3418;DHT22;68007;51.312;12.372;2023-11-21T03:13:30;11.40;94.40
3418;DHT22;68007;51.312;12.372;2023-11-21T03:15:59;11.50;94.50
3418;DHT22;68007;51.312;12.372;2023-11-21T03:18:26;11.50;94.40
3418;DHT22;68007;51.312;12.372;2023-11-21T03:20:55;11.40;94.50
3418;DHT22;68007;51.312;12.372;2023-11-21T03:23:23;11.40;94.40
3418;DHT22;68007;51.312;12.372;2023-11-21T03:25:50;11.50;94.40
3418;DHT22;68007;51.312;12.372;2023-11-21T03:28:18;11.50;94.40
3418;DHT22;68007;51.312;12.372;2023-11-21T03:30:45;11.50;94.30
3418;DHT22;68007;51.312;12.372;2023-11-21T03:33:14;11.50;94.20
3418;DHT22;68007;51.312;12.372;2023-11-21T03:35:42;11.50;94.20
3418;DHT22;68007;51.312;12.372;2023-11-21T03:38:11;11.50;94.10
3418;DHT22;68007;51.312;12.372;2023-11-21T03:40:38;11.50;94.10
3418;DHT22;68007;51.312;12.372;2023-11-21T03:43:06;11.50;94.20
3418;DHT22;68007;51.312;12.372;2023-11-21T03:45:33;11.50;94.20
3418;DHT22;68007;51.312;12.372;2023-11-21T03:48:01;11.50;94.20
3418;DHT22;68007;51.312;12.372;2023-11-21T03:50:30;11.50;94.10
3418;DHT22;68007;51.312;12.372;2023-11-21T03:52:58;11.50;94.10
3418;DHT22;68007;51.312;12.372;2023-11-21T03:55:25;11.50;94.10
3418;DHT22;68007;51.312;12.372;2023-11-21T03:57:53;11.50;93.90
3418;DHT22;68007;51.312;12.372;2023-11-21T04:00:21;11.40;93.90
3418;DHT22;68007;51.312;12.372;2023-11-21T04:02:48;11.40;94.20
3418;DHT22;68007;51.312;12.372;2023-11-21T04:05:19;11.40;94.10
3418;DHT22;68007;51.312;12.372;2023-11-21T04:07:48;11.40;94.10
3418;DHT22;68007;51.312;12.372;2023-11-21T04:10:16;11.40;94.20
3418;DHT22;68007;51.312;12.372;2023-11-21T04:12:43;11.30;94.10
3418;DHT22;68007;51.312;12.372;2023-11-21T04:15:11;11.40;94.10
3418;DHT22;68007;51.312;12.372;2023-11-21T04:17:40;11.30;94.20
3418;DHT22;68007;51.312;12.372;2023-11-21T04:20:08;11.30;94.10
3418;DHT22;68007;51.312;12.372;2023-11-21T04:22:37;11.30;94.20
3418;DHT22;68007;51.312;12.372;2023-11-21T04:25:09;11.40;94.10
3418;DHT22;68007;51.312;12.372;2023-11-21T04:27:39;11.40;94.20
3418;DHT22;68007;51.312;12.372;2023-11-21T04:30:07;11.30;94.30
3418;DHT22;68007;51.312;12.372;2023-11-21T04:32:36;11.30;94.30
3418;DHT22;68007;51.312;12.372;2023-11-21T04:35:04;11.30;94.30
3418;DHT22;68007;51.312;12.372;2023-11-21T04:37:32;11.30;94.20
3418;DHT22;68007;51.312;12.372;2023-11-21T04:39:59;11.30;94.00
3418;DHT22;68007;51.312;12.372;2023-11-21T04:42:28;11.30;94.20
3418;DHT22;68007;51.312;12.372;2023-11-21T04:44:56;11.30;94.20
3418;DHT22;68007;51.312;12.372;2023-11-21T04:47:23;11.30;94.30
3418;DHT22;68007;51.312;12.372;2023-11-21T04:49:51;11.30;94.00
3418;DHT22;68007;51.312;12.372;2023-11-21T04:52:18;11.30;94.20
3418;DHT22;68007;51.312;12.372;2023-11-21T04:54:46;11.20;94.00
3418;DHT22;68007;51.312;12.372;2023-11-21T04:57:14;11.30;94.30
3418;DHT22;68007;51.312;12.372;2023-11-21T04:59:45;11.30;94.40
3418;DHT22;68007;51.312;12.372;2023-11-21T05:02:13;11.30;94.30
3418;DHT22;68007;51.312;12.372;2023-11-21T05:04:40;11.30;94.20
3418;DHT22;68007;51.312;12.372;2023-11-21T05:07:09;11.30;94.30
3418;DHT22;68007;51.312;12.372;2023-11-21T05:09:41;11.30;94.30
3418;DHT22;68007;51.312;12.372;2023-11-21T05:12:10;11.30;94.20
3418;DHT22;68007;51.312;12.372;2023-11-21T05:14:38;11.30;94.20
3418;DHT22;68007;51.312;12.372;2023-11-21T05:17:07;11.30;94.30
3418;DHT22;68007;51.312;12.372;2023-11-21T05:19:35;11.30;94.20
3418;DHT22;68007;51.312;12.372;2023-11-21T05:22:03;11.30;94.20
3418;DHT22;68007;51.312;12.372;2023-11-21T05:24:31;11.20;94.30
3418;DHT22;68007;51.312;12.372;2023-11-21T05:26:59;11.20;94.00
3418;DHT22;68007;51.312;12.372;2023-11-21T05:29:26;11.20;93.90
3418;DHT22;68007;51.312;12.372;2023-11-21T05:31:54;11.00;93.90
3418;DHT22;68007;51.312;12.372;2023-11-21T05:34:23;11.00;94.20
3418;DHT22;68007;51.312;12.372;2023-11-21T05:36:50;10.90;94.50
3418;DHT22;68007;51.312;12.372;2023-11-21T05:39:18;10.90;94.70
3418;DHT22;68007;51.312;12.372;2023-11-21T05:41:45;10.90;94.80
3418;DHT22;68007;51.312;12.372;2023-11-21T05:44:13;11.00;94.70
3418;DHT22;68007;51.312;12.372;2023-11-21T05:46:41;11.10;94.80
3418;DHT22;68007;51.312;12.372;2023-11-21T05:49:09;11.10;94.80
3418;DHT22;68007;51.312;12.372;2023-11-21T05:51:38;11.20;94.60
3418;DHT22;68007;51.312;12.372;2023-11-21T05:54:06;11.10;94.60
3418;DHT22;68007;51.312;12.372;2023-11-21T05:56:34;11.10;94.60
3418;DHT22;68007;51.312;12.372;2023-11-21T05:59:01;11.20;94.70
3418;DHT22;68007;51.312;12.372;2023-11-21T06:01:29;11.20;94.70
3418;DHT22;68007;51.312;12.372;2023-11-21T06:03:57;11.20;94.50
3418;DHT22;68007;51.312;12.372;2023-11-21T06:06:25;11.10;94.30
3418;DHT22;68007;51.312;12.372;2023-11-21T06:08:54;11.10;94.70
3418;DHT22;68007;51.312;12.372;2023-11-21T06:11:21;11.10;94.80
3418;DHT22;68007;51.312;12.372;2023-11-21T06:13:50;11.10;94.70
3418;DHT22;68007;51.312;12.372;2023-11-21T06:16:19;11.10;94.80
3418;DHT22;68007;51.312;12.372;2023-11-21T06:18:47;11.10;94.70
3418;DHT22;68007;51.312;12.372;2023-11-21T06:21:14;11.10;94.70
3418;DHT22;68007;51.312;12.372;2023-11-21T06:23:43;11.20;94.70
3418;DHT22;68007;51.312;12.372;2023-11-21T06:26:11;11.10;94.70
3418;DHT22;68007;51.312;12.372;2023-11-21T06:28:39;11.10;94.60
3418;DHT22;68007;51.312;12.372;2023-11-21T06:31:07;11.10;94.70
3418;DHT22;68007;51.312;12.372;2023-11-21T06:33:34;11.00;94.60
3418;DHT22;68007;51.312;12.372;2023-11-21T06:36:02;11.00;94.90
3418;DHT22;68007;51.312;12.372;2023-11-21T06:38:30;10.90;95.00
3418;DHT22;68007;51.312;12.372;2023-11-21T06:40:58;10.90;94.80
3418;DHT22;68007;51.312;12.372;2023-11-21T06:43:29;10.90;94.90
3418;DHT22;68007;51.312;12.372;2023-11-21T06:45:58;10.80;94.90
3418;DHT22;68007;51.312;12.372;2023-11-21T06:48:25;10.80;95.10
3418;DHT22;68007;51.312;12.372;2023-11-21T06:50:53;10.90;95.20
3418;DHT22;68007;51.312;12.372;2023-11-21T06:53:20;10.90;95.20
3418;DHT22;68007;51.312;12.372;2023-11-21T06:55:48;10.90;95.20
3418;DHT22;68007;51.312;12.372;2023-11-21T06:58:15;11.00;95.20
3418;DHT22;68007;51.312;12.372;2023-11-21T07:00:44;11.00;95.10
3418;DHT22;68007;51.312;12.372;2023-11-21T07:03:14;11.00;95.10
3418;DHT22;68007;51.312;12.372;2023-11-21T07:05:42;11.00;95.10
3418;DHT22;68007;51.312;12.372;2023-11-21T07:08:09;11.10;95.20
3418;DHT22;68007;51.312;12.372;2023-11-21T07:10:37;11.10;95.10
3418;DHT22;68007;51.312;12.372;2023-11-21T07:13:05;11.10;95.20
3418;DHT22;68007;51.312;12.372;2023-11-21T07:15:33;11.10;95.20
3418;DHT22;68007;51.312;12.372;2023-11-21T07:18:02;11.10;95.30
3418;DHT22;68007;51.312;12.372;2023-11-21T07:20:29;11.10;95.20
3418;DHT22;68007;51.312;12.372;2023-11-21T07:22:57;11.10;95.30
3418;DHT22;68007;51.312;12.372;2023-11-21T07:25:26;11.00;95.40
3418;DHT22;68007;51.312;12.372;2023-11-21T07:27:53;11.10;95.50
3418;DHT22;68007;51.312;12.372;2023-11-21T07:30:21;11.10;95.50
3418;DHT22;68007;51.312;12.372;2023-11-21T07:32:49;11.10;95.50
3418;DHT22;68007;51.312;12.372;2023-11-21T07:35:18;11.10;95.40
3418;DHT22;68007;51.312;12.372;2023-11-21T07:37:45;11.10;95.50
3418;DHT22;68007;51.312;12.372;2023-11-21T07:40:15;11.00;95.60
3418;DHT22;68007;51.312;12.372;2023-11-21T07:42:43;11.00;95.70
3418;DHT22;68007;51.312;12.372;2023-11-21T07:45:10;11.00;95.80
3418;DHT22;68007;51.312;12.372;2023-11-21T07:47:38;11.00;95.80
3418;DHT22;68007;51.312;12.372;2023-11-21T07:50:07;11.00;95.80
3418;DHT22;68007;51.312;12.372;2023-11-21T07:52:36;11.00;96.10
3418;DHT22;68007;51.312;12.372;2023-11-21T07:55:04;11.00;96.00
3418;DHT22;68007;51.312;12.372;2023-11-21T07:57:33;11.00;96.00
3418;DHT22;68007;51.312;12.372;2023-11-21T08:00:01;11.00;96.00
3418;DHT22;68007;51.312;12.372;2023-11-21T08:02:29;11.00;96.00
3418;DHT22;68007;51.312;12.372;2023-11-21T08:04:56;11.00;96.10
3418;DHT22;68007;51.312;12.372;2023-11-21T08:07:24;11.10;96.10
3418;DHT22;68007;51.312;12.372;2023-11-21T08:09:53;11.10;96.00
3418;DHT22;68007;51.312;12.372;2023-11-21T08:12:21;11.00;96.20
3418;DHT22;68007;51.312;12.372;2023-11-21T08:14:48;11.00;96.10
3418;DHT22;68007;51.312;12.372;2023-11-21T08:17:16;11.00;96.20
3418;DHT22;68007;51.312;12.372;2023-11-21T08:19:46;11.00;96.20
3418;DHT22;68007;51.312;12.372;2023-11-21T08:22:15;11.00;96.30
3418;DHT22;68007;51.312;12.372;2023-11-21T08:24:44;11.00;96.30
3418;DHT22;68007;51.312;12.372;2023-11-21T08:27:14;11.00;96.50
3418;DHT22;68007;51.312;12.372;2023-11-21T08:29:42;10.90;96.50
3418;DHT22;68007;51.312;12.372;2023-11-21T08:32:10;10.90;96.50
3418;DHT22;68007;51.312;12.372;2023-11-21T08:34:37;10.90;96.60
3418;DHT22;68007;51.312;12.372;2023-11-21T08:37:06;10.80;96.60
3418;DHT22;68007;51.312;12.372;2023-11-21T08:39:33;10.80;96.90
3418;DHT22;68007;51.312;12.372;2023-11-21T08:42:01;10.90;96.70
3418;DHT22;68007;51.312;12.372;2023-11-21T08:44:30;10.90;96.70
3418;DHT22;68007;51.312;12.372;2023-11-21T08:46:57;10.90;96.60
3418;DHT22;68007;51.312;12.372;2023-11-21T08:49:25;10.90;96.60
3418;DHT22;68007;51.312;12.372;2023-11-21T08:51:54;10.90;96.60
3418;DHT22;68007;51.312;12.372;2023-11-21T08:54:21;10.80;96.70
3418;DHT22;68007;51.312;12.372;2023-11-21T08:56:49;10.80;96.80
3418;DHT22;68007;51.312;12.372;2023-11-21T08:59:16;10.80;96.80
3418;DHT22;68007;51.312;12.372;2023-11-21T09:01:45;10.80;96.90
3418;DHT22;68007;51.312;12.372;2023-11-21T09:04:13;10.70;96.80
3418;DHT22;68007;51.312;12.372;2023-11-21T09:06:41;10.70;96.90
3418;DHT22;68007;51.312;12.372;2023-11-21T09:09:08;10.70;96.90
3418;DHT22;68007;51.312;12.372;2023-11-21T09:11:36;10.70;96.80
3418;DHT22;68007;51.312;12.372;2023-11-21T09:14:04;10.70;96.80
3418;DHT22;68007;51.312;12.372;2023-11-21T09:16:31;10.70;97.10
3418;DHT22;68007;51.312;12.372;2023-11-21T09:19:00;10.70;96.80
3418;DHT22;68007;51.312;12.372;2023-11-21T09:21:29;10.70;96.80
3418;DHT22;68007;51.312;12.372;2023-11-21T09:23:57;10.70;96.70
3418;DHT22;68007;51.312;12.372;2023-11-21T09:26:24;10.80;96.70
3418;DHT22;68007;51.312;12.372;2023-11-21T09:28:52;10.80;96.70
3418;DHT22;68007;51.312;12.372;2023-11-21T09:31:20;10.80;96.60
3418;DHT22;68007;51.312;12.372;2023-11-21T09:33:49;10.80;96.60
3418;DHT22;68007;51.312;12.372;2023-11-21T09:36:17;10.80;96.50
3418;DHT22;68007;51.312;12.372;2023-11-21T09:38:45;10.80;96.50
3418;DHT22;68007;51.312;12.372;2023-11-21T09:41:20;10.80;96.50
3418;DHT22;68007;51.312;12.372;2023-11-21T09:43:51;10.80;96.50
3418;DHT22;68007;51.312;12.372;2023-11-21T09:46:20;10.80;96.50
3418;DHT22;68007;51.312;12.372;2023-11-21T09:48:51;10.80;96.50
3418;DHT22;68007;51.312;12.372;2023-11-21T09:51:21;10.70;96.40
3418;DHT22;68007;51.312;12.372;2023-11-21T09:53:53;10.70;96.50
3418;DHT22;68007;51.312;12.372;2023-11-21T09:56:21;10.70;96.50
3418;DHT22;68007;51.312;12.372;2023-11-21T09:58:52;10.70;96.60
3418;DHT22;68007;51.312;12.372;2023-11-21T10:01:21;10.70;96.60
3418;DHT22;68007;51.312;12.372;2023-11-21T10:03:49;10.70;96.60
3418;DHT22;68007;51.312;12.372;2023-11-21T10:06:18;10.70;96.60
3418;DHT22;68007;51.312;12.372;2023-11-21T10:08:48;10.60;96.50
3418;DHT22;68007;51.312;12.372;2023-11-21T10:11:17;10.70;96.60
3418;DHT22;68007;51.312;12.372;2023-11-21T10:13:48;10.60;96.60
3418;DHT22;68007;51.312;12.372;2023-11-21T10:16:19;10.60;96.60
3418;DHT22;68007;51.312;12.372;2023-11-21T10:18:49;10.60;96.60
3418;DHT22;68007;51.312;12.372;2023-11-21T10:21:19;10.60;96.90
3418;DHT22;68007;51.312;12.372;2023-11-21T10:23:48;10.60;96.60
3418;DHT22;68007;51.312;12.372;2023-11-21T10:26:16;10.70;96.60
3418;DHT22;68007;51.312;12.372;2023-11-21T10:28:55;10.70;96.50
3418;DHT22;68007;51.312;12.372;2023-11-21T10:31:23;10.70;96.50
3418;DHT22;68007;51.312;12.372;2023-11-21T10:33:51;10.60;96.40
3418;DHT22;68007;51.312;12.372;2023-11-21T10:36:26;10.50;96.30
3418;DHT22;68007;51.312;12.372;2023-11-21T10:38:55;10.50;96.40
3418;DHT22;68007;51.312;12.372;2023-11-21T10:41:23;10.50;96.50
3418;DHT22;68007;51.312;12.372;2023-11-21T10:43:53;10.50;96.50
3418;DHT22;68007;51.312;12.372;2023-11-21T10:46:22;10.50;96.50
3418;DHT22;68007;51.312;12.372;2023-11-21T10:48:53;10.50;96.40
3418;DHT22;68007;51.312;12.372;2023-11-21T10:51:22;10.40;96.30
3418;DHT22;68007;51.312;12.372;2023-11-21T10:53:51;10.30;96.40
3418;DHT22;68007;51.312;12.372;2023-11-21T10:56:23;10.30;96.40
3418;DHT22;68007;51.312;12.372;2023-11-21T10:58:51;10.30;96.40
3418;DHT22;68007;51.312;12.372;2023-11-21T11:01:20;10.30;96.40
3418;DHT22;68007;51.312;12.372;2023-11-21T11:03:52;10.30;96.40
3418;DHT22;68007;51.312;12.372;2023-11-21T11:06:21;10.30;96.40
3418;DHT22;68007;51.312;12.372;2023-11-21T11:08:52;10.20;96.40
3418;DHT22;68007;51.312;12.372;2023-11-21T11:11:22;10.10;96.40
3418;DHT22;68007;51.312;12.372;2023-11-21T11:13:49;10.20;96.50
3418;DHT22;68007;51.312;12.372;2023-11-21T11:16:17;10.20;96.50
3418;DHT22;68007;51.312;12.372;2023-11-21T11:18:46;10.20;96.50
3418;DHT22;68007;51.312;12.372;2023-11-21T11:21:23;10.20;96.20
3418;DHT22;68007;51.312;12.372;2023-11-21T11:24:06;10.20;96.30
3418;DHT22;68007;51.312;12.372;2023-11-21T11:26:47;10.20;96.40
3418;DHT22;68007;51.312;12.372;2023-11-21T11:29:24;10.20;96.70
3418;DHT22;68007;51.312;12.372;2023-11-21T11:32:03;10.20;96.50
3418;DHT22;68007;51.312;12.372;2023-11-21T11:34:36;10.20;96.50
3418;DHT22;68007;51.312;12.372;2023-11-21T11:37:06;10.20;96.40
3418;DHT22;68007;51.312;12.372;2023-11-21T11:39:36;10.20;96.30
3418;DHT22;68007;51.312;12.372;2023-11-21T11:42:07;10.10;96.30
3418;DHT22;68007;51.312;12.372;2023-11-21T11:44:51;10.10;96.40
3418;DHT22;68007;51.312;12.372;2023-11-21T11:47:25;10.10;96.40
3418;DHT22;68007;51.312;12.372;2023-11-21T11:50:02;10.10;96.50
3418;DHT22;68007;51.312;12.372;2023-11-21T11:52:37;10.10;96.40
3418;DHT22;68007;51.312;12.372;2023-11-21T11:55:07;10.10;96.50
3418;DHT22;68007;51.312;12.372;2023-11-21T11:57:39;10.10;96.50
3418;DHT22;68007;51.312;12.372;2023-11-21T12:00:11;10.10;96.40
3418;DHT22;68007;51.312;12.372;2023-11-21T12:02:43;10.10;96.40
3418;DHT22;68007;51.312;12.372;2023-11-21T12:05:13;10.10;96.40
3418;DHT22;68007;51.312;12.372;2023-11-21T12:07:42;10.20;96.40
3418;DHT22;68007;51.312;12.372;2023-11-21T12:10:12;10.10;96.30
3418;DHT22;68007;51.312;12.372;2023-11-21T12:12:46;10.10;96.30
3418;DHT22;68007;51.312;12.372;2023-11-21T12:15:14;10.10;96.30
3418;DHT22;68007;51.312;12.372;2023-11-21T12:17:43;10.10;96.40
3418;DHT22;68007;51.312;12.372;2023-11-21T12:20:12;10.10;96.30
3418;DHT22;68007;51.312;12.372;2023-11-21T12:22:44;10.10;96.30
3418;DHT22;68007;51.312;12.372;2023-11-21T12:25:14;10.10;96.30
3418;DHT22;68007;51.312;12.372;2023-11-21T12:27:46;10.10;96.30
3418;DHT22;68007;51.312;12.372;2023-11-21T12:30:17;10.10;96.20
3418;DHT22;68007;51.312;12.372;2023-11-21T12:32:47;10.10;96.20
3418;DHT22;68007;51.312;12.372;2023-11-21T12:35:16;10.10;96.20
3418;DHT22;68007;51.312;12.372;2023-11-21T12:37:46;10.10;96.20
3418;DHT22;68007;51.312;12.372;2023-11-21T12:40:15;10.00;96.10
3418;DHT22;68007;51.312;12.372;2023-11-21T12:42:46;10.00;96.20
3418;DHT22;68007;51.312;12.372;2023-11-21T12:45:23;10.00;96.20
3418;DHT22;68007;51.312;12.372;2023-11-21T12:47:54;10.00;96.10
3418;DHT22;68007;51.312;12.372;2023-11-21T12:50:24;10.00;96.20
3418;DHT22;68007;51.312;12.372;2023-11-21T12:52:59;10.00;96.10
3418;DHT22;68007;51.312;12.372;2023-11-21T12:55:30;10.00;96.10
3418;DHT22;68007;51.312;12.372;2023-11-21T12:58:01;10.00;96.10
3418;DHT22;68007;51.312;12.372;2023-11-21T13:00:36;10.00;95.90
3418;DHT22;68007;51.312;12.372;2023-11-21T13:03:05;9.80;95.70
3418;DHT22;68007;51.312;12.372;2023-11-21T13:05:34;9.80;95.80
3418;DHT22;68007;51.312;12.372;2023-11-21T13:08:05;9.70;95.80
3418;DHT22;68007;51.312;12.372;2023-11-21T13:10:35;9.70;95.80
3418;DHT22;68007;51.312;12.372;2023-11-21T13:13:05;9.70;96.00
3418;DHT22;68007;51.312;12.372;2023-11-21T13:15:39;9.70;95.70
3418;DHT22;68007;51.312;12.372;2023-11-21T13:18:07;9.60;95.70
3418;DHT22;68007;51.312;12.372;2023-11-21T13:20:37;9.60;95.70
3418;DHT22;68007;51.312;12.372;2023-11-21T13:23:08;9.60;95.60
3418;DHT22;68007;51.312;12.372;2023-11-21T13:25:38;9.60;95.90
3418;DHT22;68007;51.312;12.372;2023-11-21T13:28:09;9.50;95.30
3418;DHT22;68007;51.312;12.372;2023-11-21T13:30:37;9.60;95.40
3418;DHT22;68007;51.312;12.372;2023-11-21T13:33:06;9.50;95.40
3418;DHT22;68007;51.312;12.372;2023-11-21T13:35:35;9.50;95.30
3418;DHT22;68007;51.312;12.372;2023-11-21T13:38:09;9.50;95.50
3418;DHT22;68007;51.312;12.372;2023-11-21T13:40:38;9.50;95.20
3418;DHT22;68007;51.312;12.372;2023-11-21T13:43:10;9.40;95.20
3418;DHT22;68007;51.312;12.372;2023-11-21T13:45:40;9.40;95.00
3418;DHT22;68007;51.312;12.372;2023-11-21T13:48:08;9.30;95.20
3418;DHT22;68007;51.312;12.372;2023-11-21T13:50:36;9.30;95.30
3418;DHT22;68007;51.312;12.372;2023-11-21T13:53:05;9.30;95.20
3418;DHT22;68007;51.312;12.372;2023-11-21T13:55:42;9.30;95.30
3418;DHT22;68007;51.312;12.372;2023-11-21T13:58:11;9.30;95.30
3418;DHT22;68007;51.312;12.372;2023-11-21T14:00:44;9.30;95.20
3418;DHT22;68007;51.312;12.372;2023-11-21T14:03:12;9.20;95.00
3418;DHT22;68007;51.312;12.372;2023-11-21T14:05:48;9.20;95.10
3418;DHT22;68007;51.312;12.372;2023-11-21T14:08:19;9.10;95.00
3418;DHT22;68007;51.312;12.372;2023-11-21T14:10:47;9.00;95.00
3418;DHT22;68007;51.312;12.372;2023-11-21T14:13:23;9.00;95.30
3418;DHT22;68007;51.312;12.372;2023-11-21T14:15:51;9.00;95.40
3418;DHT22;68007;51.312;12.372;2023-11-21T14:18:24;9.00;95.50
3418;DHT22;68007;51.312;12.372;2023-11-21T14:20:56;9.00;95.40
3418;DHT22;68007;51.312;12.372;2023-11-21T14:23:24;9.00;95.30
3418;DHT22;68007;51.312;12.372;2023-11-21T14:25:51;9.00;95.30
3418;DHT22;68007;51.312;12.372;2023-11-21T14:28:19;9.00;95.30
3418;DHT22;68007;51.312;12.372;2023-11-21T14:30:48;9.00;95.30
3418;DHT22;68007;51.312;12.372;2023-11-21T14:33:15;9.00;95.20
3418;DHT22;68007;51.312;12.372;2023-11-21T14:35:43;9.00;95.20
3418;DHT22;68007;51.312;12.372;2023-11-21T14:38:12;9.00;95.10
3418;DHT22;68007;51.312;12.372;2023-11-21T14:40:40;9.10;95.10
3418;DHT22;68007;51.312;12.372;2023-11-21T14:43:08;9.00;95.00
3418;DHT22;68007;51.312;12.372;2023-11-21T14:45:35;9.10;95.00
3418;DHT22;68007;51.312;12.372;2023-11-21T14:48:04;9.00;94.90
3418;DHT22;68007;51.312;12.372;2023-11-21T14:50:42;9.10;94.90
3418;DHT22;68007;51.312;12.372;2023-11-21T14:53:16;9.00;94.60
3418;DHT22;68007;51.312;12.372;2023-11-21T14:56:01;9.00;94.60
3418;DHT22;68007;51.312;12.372;2023-11-21T14:58:30;9.00;94.70
3418;DHT22;68007;51.312;12.372;2023-11-21T15:00:58;9.00;94.60
3418;DHT22;68007;51.312;12.372;2023-11-21T15:03:28;9.00;94.60
3418;DHT22;68007;51.312;12.372;2023-11-21T15:06:14;9.00;94.60
3418;DHT22;68007;51.312;12.372;2023-11-21T15:08:53;9.00;94.60
3418;DHT22;68007;51.312;12.372;2023-11-21T15:11:55;9.00;94.60
3418;DHT22;68007;51.312;12.372;2023-11-21T15:14:29;9.00;94.50
3418;DHT22;68007;51.312;12.372;2023-11-21T15:16:58;9.00;94.40
3418;DHT22;68007;51.312;12.372;2023-11-21T15:19:28;9.00;94.50
3418;DHT22;68007;51.312;12.372;2023-11-21T15:21:57;9.00;94.40
3418;DHT22;68007;51.312;12.372;2023-11-21T15:24:25;9.00;94.20
3418;DHT22;68007;51.312;12.372;2023-11-21T15:26:53;9.00;94.30
3418;DHT22;68007;51.312;12.372;2023-11-21T15:29:21;9.00;94.30
3418;DHT22;68007;51.312;12.372;2023-11-21T15:31:48;8.90;94.30
3418;DHT22;68007;51.312;12.372;2023-11-21T15:34:16;8.90;94.20
3418;DHT22;68007;51.312;12.372;2023-11-21T15:36:45;9.00;94.30
3418;DHT22;68007;51.312;12.372;2023-11-21T15:39:14;9.00;94.20
3418;DHT22;68007;51.312;12.372;2023-11-21T15:41:42;8.90;94.10
3418;DHT22;68007;51.312;12.372;2023-11-21T15:44:09;8.90;94.10